createdAt,value
2019-05-03T00:02:29.886Z,99.20
2019-05-03T00:05:03.025Z,99.20
2019-05-03T00:07:31.777Z,99.20
2019-05-03T00:10:00.436Z,99.30
2019-05-03T00:12:48.207Z,99.40
2019-05-03T00:15:32.233Z,99.50
2019-05-03T00:18:02.359Z,99.50
2019-05-03T00:20:32.624Z,99.50
2019-05-03T00:23:02.802Z,99.60
2019-05-03T00:25:32.641Z,99.60
2019-05-03T00:28:01.892Z,99.60
2019-05-03T00:30:32.027Z,99.60
2019-05-03T00:33:02.727Z,99.60
2019-05-03T00:35:32.585Z,99.30
2019-05-03T00:38:02.651Z,99.30
2019-05-03T00:40:32.387Z,99.40
2019-05-03T00:43:02.338Z,99.50
2019-05-03T00:45:31.625Z,99.40
2019-05-03T00:48:01.855Z,99.10
2019-05-03T00:50:32.109Z,99.20
2019-05-03T00:53:02.368Z,99.10
2019-05-03T00:55:32.778Z,99.10
2019-05-03T00:58:02.489Z,99.10
2019-05-03T01:00:32.311Z,99.10
2019-05-03T01:03:02.194Z,99.40
2019-05-03T01:05:32.976Z,99.70
2019-05-03T01:08:01.980Z,99.90
2019-05-03T01:10:30.504Z,99.90
2019-05-03T01:12:58.965Z,99.90
2019-05-03T01:15:32.045Z,99.90
2019-05-03T01:18:02.155Z,99.90
2019-05-03T01:20:31.975Z,99.90
2019-05-03T01:23:02.066Z,99.90
2019-05-03T01:25:35.078Z,99.90
2019-05-03T01:28:01.544Z,99.90
2019-05-03T01:30:32.082Z,99.90
2019-05-03T01:33:02.676Z,99.90
2019-05-03T01:35:32.271Z,99.90
2019-05-03T01:38:02.542Z,99.90
2019-05-03T01:40:32.587Z,99.90
2019-05-03T01:43:02.235Z,99.90
2019-05-03T01:45:31.815Z,99.90
2019-05-03T01:48:04.816Z,99.90
2019-05-03T01:50:42.513Z,99.90
2019-05-03T01:53:12.573Z,99.90
2019-05-03T01:55:52.994Z,99.90
2019-05-03T01:58:24.431Z,99.90
2019-05-03T02:01:03.939Z,99.90
2019-05-03T02:03:42.847Z,99.90
2019-05-03T02:06:11.885Z,99.90
2019-05-03T02:08:41.808Z,99.90
2019-05-03T02:11:11.650Z,99.90
2019-05-03T02:13:40.211Z,99.90
2019-05-03T02:16:08.648Z,99.90
2019-05-03T02:18:37.080Z,99.90
2019-05-03T02:21:05.514Z,99.90
2019-05-03T02:23:33.952Z,99.90
2019-05-03T02:26:03.119Z,99.90
2019-05-03T02:28:32.678Z,99.90
2019-05-03T02:31:03.491Z,99.90
2019-05-03T02:33:32.890Z,99.90
2019-05-03T02:36:03.589Z,99.90
2019-05-03T02:38:33.745Z,99.90
2019-05-03T02:41:22.711Z,99.90
2019-05-03T02:43:58.707Z,99.90
2019-05-03T02:46:45.459Z,99.80
2019-05-03T02:49:21.513Z,99.90
2019-05-03T02:51:49.950Z,99.90
2019-05-03T02:54:18.386Z,99.90
2019-05-03T02:56:46.837Z,99.80
2019-05-03T02:59:15.967Z,99.90
2019-05-03T03:01:46.514Z,99.90
2019-05-03T03:04:15.945Z,99.90
2019-05-03T03:06:47.247Z,99.90
2019-05-03T03:09:18.771Z,99.80
2019-05-03T03:11:48.813Z,99.70
2019-05-03T03:14:20.616Z,99.50
2019-05-03T03:16:50.850Z,99.70
2019-05-03T03:19:21.423Z,99.80
2019-05-03T03:21:51.569Z,99.90
2019-05-03T03:24:22.418Z,99.90
2019-05-03T03:26:52.479Z,99.90
2019-05-03T03:29:45.707Z,99.90
2019-05-03T03:32:19.743Z,99.90
2019-05-03T03:35:00.631Z,99.90
2019-05-03T03:37:26.024Z,99.90
2019-05-03T03:39:56.132Z,99.30
2019-05-03T03:42:25.212Z,98.40
2019-05-03T03:44:56.274Z,98.30
2019-05-03T03:47:27.580Z,98.50
2019-05-03T03:49:57.560Z,98.50
2019-05-03T03:52:27.656Z,98.80
2019-05-03T03:54:59.235Z,99.10
2019-05-03T03:57:28.694Z,98.80
2019-05-03T03:59:57.909Z,98.90
2019-05-03T04:02:26.716Z,99.00
2019-05-03T04:04:56.163Z,99.20
2019-05-03T04:07:26.168Z,98.50
2019-05-03T04:09:56.317Z,98.60
2019-05-03T04:12:26.652Z,98.50
2019-05-03T04:14:56.908Z,98.20
2019-05-03T04:17:45.618Z,98.40
2019-05-03T04:20:16.221Z,98.70
2019-05-03T04:22:45.375Z,98.80
2019-05-03T04:25:15.322Z,99.40
2019-05-03T04:27:45.687Z,99.90
2019-05-03T04:30:16.453Z,99.90
2019-05-03T04:32:45.536Z,99.90
2019-05-03T04:35:16.420Z,99.90
2019-05-03T04:37:45.321Z,99.90
2019-05-03T04:40:15.621Z,99.90
2019-05-03T04:42:46.370Z,99.90
2019-05-03T04:45:16.545Z,99.90
2019-05-03T04:47:46.359Z,99.90
2019-05-03T04:50:26.693Z,99.90
2019-05-03T04:52:56.671Z,99.90
2019-05-03T04:55:26.661Z,99.90
2019-05-03T04:57:56.232Z,99.90
2019-05-03T05:00:25.604Z,99.90
2019-05-03T05:02:55.333Z,99.90
2019-05-03T05:05:26.148Z,99.90
2019-05-03T05:07:55.776Z,99.90
2019-05-03T05:10:26.038Z,99.90
2019-05-03T05:12:55.191Z,99.90
2019-05-03T05:15:26.271Z,99.90
2019-05-03T05:20:45.273Z,99.90
2019-05-03T05:23:14.787Z,99.90
2019-05-03T05:25:45.024Z,99.90
2019-05-03T05:28:18.012Z,99.90
2019-05-03T05:30:46.737Z,99.90
2019-05-03T05:33:21.391Z,99.90
2019-05-03T05:35:51.435Z,99.90
2019-05-03T05:38:19.923Z,99.90
2019-05-03T05:40:48.339Z,99.90
2019-05-03T05:43:16.768Z,99.90
2019-05-03T05:45:45.193Z,99.90
2019-05-03T05:48:24.613Z,99.90
2019-05-03T05:51:14.148Z,99.90
2019-05-03T05:53:44.537Z,99.90
2019-05-03T05:56:15.764Z,99.90
2019-05-03T05:58:52.278Z,99.90
2019-05-03T06:01:22.353Z,99.90
2019-05-03T06:03:50.791Z,99.90
2019-05-03T06:06:26.815Z,99.90
2019-05-03T06:08:56.880Z,99.90
2019-05-03T06:11:36.088Z,99.90
2019-05-03T06:14:06.153Z,99.90
2019-05-03T06:16:41.960Z,99.90
2019-05-03T06:19:17.944Z,99.90
2019-05-03T06:21:56.759Z,99.90
2019-05-03T06:24:29.744Z,99.90
2019-05-03T06:26:59.829Z,99.90
2019-05-03T06:29:28.256Z,99.90
2019-05-03T06:32:15.315Z,99.90
2019-05-03T06:34:45.405Z,99.90
2019-05-03T06:37:18.123Z,99.90
2019-05-03T06:39:46.543Z,99.90
2019-05-03T06:42:19.109Z,99.90
2019-05-03T06:44:45.607Z,99.90
2019-05-03T06:47:14.825Z,99.90
2019-05-03T06:49:44.856Z,99.90
2019-05-03T06:52:14.757Z,99.90
2019-05-03T06:54:44.939Z,99.90
2019-05-03T06:57:15.336Z,99.90
2019-05-03T06:59:48.439Z,99.90
2019-05-03T07:02:30.678Z,99.90
2019-05-03T07:05:00.739Z,99.90
2019-05-03T07:07:30.803Z,99.90
2019-05-03T07:10:14.892Z,99.50
2019-05-03T07:12:59.298Z,99.10
2019-05-03T07:15:47.055Z,98.90
2019-05-03T07:18:15.832Z,99.30
2019-05-03T07:20:46.032Z,99.50
2019-05-03T07:23:15.590Z,99.40
2019-05-03T07:25:44.814Z,99.30
2019-05-03T07:28:15.046Z,99.40
2019-05-03T07:30:45.395Z,99.80
2019-05-03T07:33:15.488Z,99.70
2019-05-03T07:35:44.495Z,99.30
2019-05-03T07:38:13.038Z,99.20
2019-05-03T07:40:41.454Z,98.80
2019-05-03T07:43:09.875Z,98.80
2019-05-03T07:45:38.307Z,98.90
2019-05-03T07:48:06.750Z,98.30
2019-05-03T07:50:35.836Z,97.90
2019-05-03T07:53:04.717Z,97.20
2019-05-03T07:55:50.084Z,97.20
2019-05-03T07:58:26.028Z,97.40
2019-05-03T08:01:05.886Z,96.30
2019-05-03T08:03:26.223Z,96.30
2019-05-03T08:05:55.380Z,95.70
2019-05-03T08:08:25.070Z,95.70
2019-05-03T08:10:55.001Z,95.00
2019-05-03T08:13:25.359Z,95.00
2019-05-03T08:15:55.707Z,94.60
2019-05-03T08:18:25.744Z,94.10
2019-05-03T08:21:14.931Z,94.00
2019-05-03T08:23:45.294Z,93.70
2019-05-03T08:26:15.273Z,93.60
2019-05-03T08:28:44.447Z,93.20
2019-05-03T08:31:20.622Z,93.30
2019-05-03T08:34:07.180Z,93.70
2019-05-03T08:36:54.795Z,93.50
2019-05-03T08:39:25.273Z,94.10
2019-05-03T08:42:04.923Z,94.60
2019-05-03T08:44:35.399Z,94.30
2019-05-03T08:47:05.209Z,92.90
2019-05-03T08:49:34.805Z,93.00
2019-05-03T08:52:05.479Z,93.20
2019-05-03T08:54:34.713Z,93.60
2019-05-03T08:57:03.399Z,93.90
2019-05-03T08:59:32.801Z,93.80
2019-05-03T09:02:03.551Z,93.70
2019-05-03T09:04:37.305Z,93.80
2019-05-03T09:07:01.939Z,93.00
2019-05-03T09:09:34.970Z,93.30
2019-05-03T09:12:04.705Z,92.40
2019-05-03T09:14:42.611Z,92.60
2019-05-03T09:17:04.936Z,92.60
2019-05-03T09:19:34.688Z,92.40
2019-05-03T09:22:05.963Z,91.90
2019-05-03T09:24:35.179Z,91.70
2019-05-03T09:27:05.075Z,90.60
2019-05-03T09:29:42.995Z,91.00
2019-05-03T09:32:05.134Z,90.60
2019-05-03T09:34:35.147Z,90.50
2019-05-03T09:37:04.825Z,91.10
2019-05-03T09:39:35.286Z,91.30
2019-05-03T09:42:04.701Z,91.50
2019-05-03T09:44:34.974Z,91.50
2019-05-03T09:47:05.672Z,91.60
2019-05-03T09:49:36.813Z,91.40
2019-05-03T09:52:08.508Z,91.10
2019-05-03T09:54:37.535Z,91.00
2019-05-03T09:57:08.297Z,90.80
2019-05-03T09:59:36.770Z,90.90
2019-05-03T10:02:05.414Z,89.30
2019-05-03T10:04:36.373Z,90.00
2019-05-03T10:07:04.788Z,90.00
2019-05-03T10:09:35.418Z,88.70
2019-05-03T10:12:05.660Z,89.30
2019-05-03T10:14:54.868Z,90.00
2019-05-03T10:17:35.104Z,89.30
2019-05-03T10:20:09.888Z,89.30
2019-05-03T10:22:38.354Z,87.10
2019-05-03T10:25:07.576Z,86.50
2019-05-03T10:27:48.061Z,87.20
2019-05-03T10:30:40.012Z,88.00
2019-05-03T10:33:19.310Z,89.00
2019-05-03T10:35:47.751Z,87.60
2019-05-03T10:38:16.184Z,87.60
2019-05-03T10:40:45.246Z,86.50
2019-05-03T10:43:13.928Z,86.30
2019-05-03T10:45:42.348Z,84.40
2019-05-03T10:48:10.783Z,83.30
2019-05-03T10:50:40.278Z,83.50
2019-05-03T10:53:10.422Z,83.80
2019-05-03T10:55:38.891Z,85.70
2019-05-03T10:58:16.117Z,87.50
2019-05-03T11:00:52.898Z,88.30
2019-05-03T11:03:17.554Z,85.40
2019-05-03T11:06:05.540Z,85.30
2019-05-03T11:08:34.045Z,84.20
2019-05-03T11:11:02.472Z,85.90
2019-05-03T11:13:30.912Z,86.50
2019-05-03T11:15:59.337Z,85.50
2019-05-03T11:18:28.262Z,84.60
2019-05-03T11:20:56.871Z,84.50
2019-05-03T11:23:45.006Z,85.40
2019-05-03T11:26:13.571Z,86.20
2019-05-03T11:28:42.045Z,85.70
2019-05-03T11:31:28.227Z,86.60
2019-05-03T11:33:58.301Z,85.90
2019-05-03T11:36:45.379Z,85.60
2019-05-03T11:39:14.468Z,85.60
2019-05-03T11:41:45.059Z,86.20
2019-05-03T11:44:31.879Z,86.40
2019-05-03T11:47:00.316Z,85.90
2019-05-03T11:49:28.753Z,84.70
2019-05-03T11:51:57.199Z,83.90
2019-05-03T11:54:25.676Z,82.90
2019-05-03T11:56:55.653Z,80.80
2019-05-03T11:59:25.384Z,80.60
2019-05-03T12:01:59.005Z,79.20
2019-05-03T12:04:27.436Z,77.60
2019-05-03T12:06:55.875Z,76.60
2019-05-03T12:09:24.331Z,75.50
2019-05-03T12:11:55.358Z,75.70
2019-05-03T12:14:24.522Z,76.20
2019-05-03T12:17:17.159Z,75.40
2019-05-03T12:19:31.184Z,73.90
2019-05-03T12:21:58.639Z,69.20
2019-05-03T12:24:27.913Z,64.60
2019-05-03T12:26:56.937Z,61.70
2019-05-03T12:29:25.393Z,58.40
2019-05-03T12:31:54.841Z,55.90
2019-05-03T12:34:25.484Z,57.50
2019-05-03T12:36:53.595Z,58.50
2019-05-03T12:39:26.328Z,57.00
2019-05-03T12:41:52.272Z,53.70
2019-05-03T12:44:20.775Z,54.20
2019-05-03T12:46:49.233Z,53.70
2019-05-03T12:49:17.661Z,54.10
2019-05-03T12:51:46.090Z,55.70
2019-05-03T12:54:15.214Z,57.80
2019-05-03T12:56:45.360Z,58.30
2019-05-03T12:59:18.543Z,59.00
2019-05-03T13:01:51.550Z,59.80
2019-05-03T13:04:21.637Z,60.30
2019-05-03T13:06:54.950Z,57.10
2019-05-03T13:09:25.169Z,53.90
2019-05-03T13:11:58.774Z,50.40
2019-05-03T13:14:25.472Z,49.90
2019-05-03T13:16:55.202Z,50.10
2019-05-03T13:19:25.703Z,50.80
2019-05-03T13:21:55.591Z,52.90
2019-05-03T13:24:26.031Z,51.70
2019-05-03T13:26:54.691Z,50.90
2019-05-03T13:29:23.126Z,50.50
2019-05-03T13:31:59.216Z,50.30
2019-05-03T13:34:24.805Z,50.00
2019-05-03T13:36:54.956Z,50.30
2019-05-03T13:39:26.277Z,47.20
2019-05-03T13:41:54.944Z,46.60
2019-05-03T13:44:44.809Z,47.20
2019-05-03T13:47:14.888Z,42.70
2019-05-03T13:49:44.721Z,41.90
2019-05-03T13:52:14.550Z,40.00
2019-05-03T13:54:45.906Z,38.80
2019-05-03T13:57:15.249Z,37.30
2019-05-03T13:59:44.853Z,41.00
2019-05-03T14:02:18.828Z,40.80
2019-05-03T14:04:52.420Z,39.90
2019-05-03T14:07:15.210Z,40.00
2019-05-03T14:09:45.254Z,41.60
2019-05-03T14:12:15.445Z,43.50
2019-05-03T14:14:56.087Z,44.40
2019-05-03T14:17:26.547Z,46.10
2019-05-03T14:19:56.774Z,47.40
2019-05-03T14:22:27.092Z,48.50
2019-05-03T14:24:55.582Z,49.00
2019-05-03T14:27:25.404Z,47.20
2019-05-03T14:29:54.917Z,45.90
2019-05-03T14:32:26.656Z,44.90
2019-05-03T14:34:54.724Z,45.30
2019-05-03T14:37:23.400Z,45.40
2019-05-03T14:39:51.832Z,45.70
2019-05-03T14:42:20.277Z,47.00
2019-05-03T14:44:48.687Z,47.80
2019-05-03T14:47:17.128Z,50.20
2019-05-03T14:49:45.560Z,51.10
2019-05-03T14:52:14.705Z,51.40
2019-05-03T14:54:45.138Z,52.00
2019-05-03T14:57:21.395Z,53.10
2019-05-03T15:00:07.713Z,53.30
2019-05-03T15:02:43.574Z,53.80
2019-05-03T15:05:08.068Z,54.40
2019-05-03T15:07:36.511Z,54.70
2019-05-03T15:10:06.529Z,52.90
2019-05-03T15:12:35.961Z,51.70
2019-05-03T15:15:07.108Z,49.90
2019-05-03T15:17:35.556Z,50.60
2019-05-03T15:20:06.429Z,51.10
2019-05-03T15:22:34.860Z,51.30
2019-05-03T15:25:05.109Z,52.40
2019-05-03T15:27:35.343Z,52.40
2019-05-03T15:30:05.890Z,52.30
2019-05-03T15:32:35.378Z,52.00
2019-05-03T15:35:06.163Z,51.90
2019-05-03T15:37:35.766Z,52.00
2019-05-03T15:40:07.140Z,52.70
2019-05-03T15:42:59.243Z,53.90
2019-05-03T15:45:45.780Z,53.60
2019-05-03T15:48:24.735Z,54.10
2019-05-03T15:51:12.499Z,53.60
2019-05-03T15:53:40.935Z,54.90
2019-05-03T15:56:09.356Z,55.50
2019-05-03T15:58:37.792Z,55.80
2019-05-03T16:01:06.216Z,55.50
2019-05-03T16:03:35.768Z,55.10
2019-05-03T16:06:04.927Z,53.50
2019-05-03T16:08:33.641Z,53.50
2019-05-03T16:11:02.081Z,54.20
2019-05-03T16:13:30.510Z,54.60
2019-05-03T16:15:58.946Z,54.10
2019-05-03T16:18:27.388Z,53.70
2019-05-03T16:20:55.811Z,54.00
2019-05-03T16:23:25.117Z,53.50
2019-05-03T16:25:54.412Z,54.80
2019-05-03T16:28:33.424Z,55.60
2019-05-03T16:31:06.362Z,55.70
2019-05-03T16:33:34.990Z,56.20
2019-05-03T16:36:05.355Z,56.00
2019-05-03T16:38:35.295Z,55.60
2019-05-03T16:41:05.145Z,55.00
2019-05-03T16:43:34.858Z,54.50
2019-05-03T16:46:05.481Z,54.10
2019-05-03T16:48:35.294Z,54.20
2019-05-03T16:51:04.021Z,54.50
2019-05-03T16:53:32.451Z,53.90
2019-05-03T16:56:03.373Z,54.40
2019-05-03T16:58:31.048Z,54.30
2019-05-03T17:00:59.482Z,54.40
2019-05-03T17:03:38.421Z,54.20
2019-05-03T17:06:01.349Z,54.30
2019-05-03T17:08:34.721Z,55.00
2019-05-03T17:11:05.671Z,54.80
2019-05-03T17:13:34.659Z,55.60
2019-05-03T17:16:04.804Z,55.40
2019-05-03T17:18:55.078Z,56.00
2019-05-03T17:21:25.323Z,55.80
2019-05-03T17:23:53.328Z,56.60
2019-05-03T17:26:21.746Z,56.40
2019-05-03T17:28:50.187Z,56.50
2019-05-03T17:31:18.678Z,58.10
2019-05-03T17:33:53.173Z,58.40
2019-05-03T17:36:17.271Z,58.10
2019-05-03T17:38:46.971Z,57.00
2019-05-03T17:41:25.915Z,56.30
2019-05-03T17:43:56.010Z,56.30
2019-05-03T17:46:25.514Z,56.80
2019-05-03T17:48:54.696Z,56.70
2019-05-03T17:51:39.901Z,56.90
2019-05-03T17:54:28.169Z,56.90
2019-05-03T17:57:10.214Z,56.50
2019-05-03T17:59:40.295Z,56.60
2019-05-03T18:02:22.478Z,58.80
2019-05-03T18:05:09.119Z,60.60
2019-05-03T18:07:45.397Z,60.80
2019-05-03T18:10:15.191Z,58.20
2019-05-03T18:12:45.344Z,58.20
2019-05-03T18:15:14.787Z,58.50
2019-05-03T18:17:44.486Z,58.50
2019-05-03T18:20:14.951Z,58.50
2019-05-03T18:22:43.310Z,59.50
2019-05-03T18:25:11.747Z,59.70
2019-05-03T18:27:40.244Z,60.00
2019-05-03T18:30:08.683Z,60.50
2019-05-03T18:32:37.107Z,61.20
2019-05-03T18:35:07.208Z,62.50
2019-05-03T18:37:35.644Z,62.70
2019-05-03T18:40:06.476Z,63.50
2019-05-03T18:42:44.659Z,64.00
2019-05-03T18:45:17.127Z,64.10
2019-05-03T18:47:45.791Z,65.20
2019-05-03T18:50:14.364Z,65.70
2019-05-03T18:58:27.654Z,67.10
2019-05-03T19:00:56.964Z,67.00
2019-05-03T19:03:25.383Z,66.40
2019-05-03T19:05:55.458Z,66.70
2019-05-03T19:08:44.697Z,67.30
2019-05-03T19:11:40.173Z,68.20
2019-05-03T19:14:14.887Z,69.70
2019-05-03T19:16:59.711Z,70.40
2019-05-03T19:19:29.857Z,70.60
2019-05-03T19:21:58.291Z,71.00
2019-05-03T19:24:26.719Z,70.60
2019-05-03T19:26:55.240Z,71.10
2019-05-03T19:29:25.007Z,71.40
2019-05-03T19:31:55.237Z,71.70
2019-05-03T19:34:24.338Z,71.70
2019-05-03T19:36:54.752Z,72.20
2019-05-03T19:39:25.107Z,71.50
2019-05-03T19:41:55.170Z,70.80
2019-05-03T19:44:23.755Z,72.40
2019-05-03T19:46:52.209Z,73.60
2019-05-03T19:49:21.015Z,74.90
2019-05-03T19:51:49.460Z,75.20
2019-05-03T19:54:17.895Z,74.30
2019-05-03T19:56:46.856Z,74.50
2019-05-03T19:59:17.091Z,75.40
2019-05-03T20:01:50.106Z,75.00
2019-05-03T20:04:29.403Z,75.20
2019-05-03T20:06:59.501Z,75.40
2019-05-03T20:09:28.506Z,75.70
2019-05-03T20:11:57.008Z,76.20
2019-05-03T20:14:25.845Z,77.90
2019-05-03T20:16:54.993Z,78.10
2019-05-03T20:19:25.455Z,81.10
2019-05-03T20:21:54.203Z,82.80
2019-05-03T20:24:44.766Z,84.00
2019-05-03T20:27:15.148Z,84.80
2019-05-03T20:29:46.142Z,85.00
2019-05-03T20:32:16.849Z,84.40
2019-05-03T20:34:45.306Z,85.30
2019-05-03T20:37:14.707Z,85.90
2019-05-03T20:39:43.365Z,86.30
2019-05-03T20:42:15.232Z,84.50
2019-05-03T20:44:45.236Z,84.90
2019-05-03T20:47:18.246Z,84.90
2019-05-03T20:49:48.385Z,83.80
2019-05-03T20:52:16.832Z,85.20
2019-05-03T20:54:45.457Z,87.80
2019-05-03T20:57:14.531Z,88.50
2019-05-03T20:59:48.663Z,90.00
2019-05-03T21:02:15.222Z,90.20
2019-05-03T21:04:43.411Z,90.40
2019-05-03T21:07:11.959Z,90.60
2019-05-03T21:09:40.476Z,90.70
2019-05-03T21:12:08.909Z,90.50
2019-05-03T21:14:37.341Z,88.00
2019-05-03T21:17:14.930Z,89.10
2019-05-03T21:19:45.159Z,88.90
2019-05-03T21:22:15.212Z,88.40
2019-05-03T21:24:45.461Z,88.50
2019-05-03T21:27:13.979Z,90.00
2019-05-03T21:29:50.012Z,89.30
2019-05-03T21:32:18.431Z,88.70
2019-05-03T21:34:46.935Z,90.00
2019-05-03T21:37:15.347Z,89.60
2019-05-03T21:39:45.417Z,90.20
2019-05-03T21:42:15.133Z,92.60
2019-05-03T21:44:44.846Z,93.00
2019-05-03T21:47:15.324Z,92.90
2019-05-03T21:49:45.392Z,92.70
2019-05-03T21:52:14.688Z,92.70
2019-05-03T21:54:44.958Z,92.50
2019-05-03T21:57:14.288Z,92.50
2019-05-03T21:59:44.793Z,92.50
2019-05-03T22:02:15.298Z,92.50
2019-05-03T22:04:44.448Z,92.80
2019-05-03T22:07:13.039Z,92.90
2019-05-03T22:09:41.463Z,93.20
2019-05-03T22:12:09.885Z,93.50
2019-05-03T22:14:56.277Z,93.50
2019-05-03T22:17:44.642Z,93.80
2019-05-03T22:20:14.444Z,94.00
2019-05-03T22:22:50.495Z,94.10
2019-05-03T22:25:20.568Z,94.10
2019-05-03T22:27:48.991Z,94.00
2019-05-03T22:30:17.450Z,94.10
2019-05-03T22:32:45.887Z,94.00
2019-05-03T22:35:15.684Z,94.20
2019-05-03T22:37:44.669Z,94.20
2019-05-03T22:40:14.611Z,94.20
2019-05-03T22:42:44.779Z,94.50
2019-05-03T22:45:13.520Z,94.10
2019-05-03T22:47:41.946Z,94.30
2019-05-03T22:50:10.451Z,94.60
2019-05-03T22:52:38.885Z,95.10
2019-05-03T22:55:07.700Z,95.20
2019-05-03T22:57:36.417Z,95.30
2019-05-03T23:00:28.809Z,95.60
2019-05-03T23:02:57.237Z,95.10
2019-05-03T23:05:25.683Z,94.80
2019-05-03T23:07:55.211Z,94.70
2019-05-03T23:10:25.665Z,94.40
2019-05-03T23:12:54.431Z,94.40
2019-05-03T23:15:24.388Z,94.40
2019-05-03T23:17:54.537Z,94.60
2019-05-03T23:23:32.638Z,94.50
2019-05-03T23:26:01.091Z,94.40
2019-05-03T23:28:29.495Z,94.30
2019-05-03T23:30:57.932Z,94.60
2019-05-03T23:33:26.381Z,94.70
2019-05-03T23:35:55.233Z,94.70
2019-05-03T23:38:24.713Z,94.50
2019-05-03T23:40:54.945Z,94.90
2019-05-03T23:43:25.161Z,94.50
2019-05-03T23:45:54.571Z,94.30
2019-05-03T23:48:23.111Z,94.30
2019-05-03T23:50:51.537Z,94.40
2019-05-03T23:53:19.969Z,94.00
2019-05-03T23:56:02.261Z,94.10
2019-05-03T23:58:30.674Z,94.20
